Time;durP1;ratioP1;P1;durP2;ratioP2;P2;SDS_P1;SDS_P2;PMS_P1;PMS_P2;Temp;Humidity;BMP_temperature;BMP_pressure;BME280_temperature;BME280_humidity;BME280_pressure;Samples;Min_cycle;Max_cycle;Signal;HPM_P1;HPM_P2
2021/05/09 00:01:58;;;;;;;0.27;0.27;;;;;;;6.77;64.26;100571.75;1628843;85;21221;-93
2021/05/09 00:04:26;;;;;;;0.93;0.60;;;;;;;6.74;64.17;100572.91;1615949;87;21246;-92
2021/05/09 00:09:30;;;;;;;0.80;0.50;;;;;;;6.69;64.08;100577.84;1811595;78;23017;-92
2021/05/09 00:11:59;;;;;;;2.10;0.57;;;;;;;6.62;63.94;100585.57;1765310;77;22408;-91
2021/05/09 00:14:28;;;;;;;0.40;0.40;;;;;;;6.61;63.96;100580.42;1722854;80;21421;-94
2021/05/09 00:16:56;;;;;;;1.43;0.83;;;;;;;6.59;63.87;100579.28;1699389;82;21217;-92
2021/05/09 00:19:25;;;;;;;0.43;0.43;;;;;;;6.57;63.71;100575.95;1672463;83;21190;-90
2021/05/09 00:21:52;;;;;;;0.47;0.30;;;;;;;6.57;63.60;100580.41;1669784;82;21175;-91
2021/05/09 00:24:19;;;;;;;1.37;0.40;;;;;;;6.55;63.89;100581.88;1659351;82;21117;-91
2021/05/09 00:26:47;;;;;;;2.30;0.37;;;;;;;6.52;63.79;100586.69;1706972;80;21274;-92
2021/05/09 00:29:14;;;;;;;0.80;0.40;;;;;;;6.53;63.64;100586.50;1694779;83;21203;-93
2021/05/09 00:31:42;;;;;;;0.60;0.50;;;;;;;6.61;63.46;100583.07;1697862;83;21197;-93
2021/05/09 00:34:09;;;;;;;0.90;0.90;;;;;;;6.64;63.46;100582.77;1672646;84;21615;-94
2021/05/09 00:36:37;;;;;;;0.37;0.37;;;;;;;6.61;63.44;100587.05;1683744;83;21244;-93
2021/05/09 00:39:04;;;;;;;0.40;0.40;;;;;;;6.58;63.50;100590.02;1671369;84;21219;-92
2021/05/09 00:41:32;;;;;;;1.07;0.30;;;;;;;6.57;63.67;100595.83;1698836;83;21518;-93
2021/05/09 00:43:59;;;;;;;0.40;0.40;;;;;;;6.52;63.87;100594.62;1704090;83;21244;-92
2021/05/09 00:46:26;;;;;;;1.33;0.40;;;;;;;6.22;63.75;100554.38;1701680;82;21692;-94
2021/05/09 00:48:57;;;;;;;0.57;0.50;;;;;;;6.40;63.92;100598.00;1661157;84;21677;-93
2021/05/09 00:51:25;;;;;;;1.20;0.53;;;;;;;6.32;63.92;100596.13;1667976;84;21191;-95
2021/05/09 00:53:55;;;;;;;0.97;0.60;;;;;;;6.35;63.83;100601.12;1686977;83;21356;-93
2021/05/09 00:56:25;;;;;;;0.90;0.50;;;;;;;6.42;63.68;100600.85;1666244;83;21166;-94
2021/05/09 00:58:56;;;;;;;0.77;0.50;;;;;;;6.43;63.85;100601.17;1663347;84;21213;-93
2021/05/09 01:01:23;;;;;;;0.40;0.20;;;;;;;6.39;63.89;100601.66;1674085;83;21240;-93
2021/05/09 01:03:53;;;;;;;0.73;0.50;;;;;;;6.34;63.69;100606.57;1659376;84;21249;-92
2021/05/09 01:06:22;;;;;;;4.93;0.97;;;;;;;6.31;63.79;100610.84;1638111;86;21228;-93
2021/05/09 01:08:49;;;;;;;2.97;1.07;;;;;;;6.27;63.77;100608.98;1672928;85;21365;-93
2021/05/09 01:11:18;;;;;;;0.47;0.40;;;;;;;6.26;63.80;100613.14;1660100;85;22164;-92
2021/05/09 01:13:46;;;;;;;1.90;0.53;;;;;;;6.25;63.79;100612.28;1680684;84;21228;-93
2021/05/09 01:16:14;;;;;;;0.60;0.40;;;;;;;6.25;63.71;100617.58;1682577;83;21183;-93
2021/05/09 01:18:41;;;;;;;1.70;0.90;;;;;;;6.24;63.84;100621.22;1684308;84;21216;-93
2021/05/09 01:21:08;;;;;;;0.60;0.60;;;;;;;6.25;63.91;100625.52;1674975;83;21212;-93
2021/05/09 01:23:35;;;;;;;0.87;0.83;;;;;;;6.33;63.97;100624.28;1657693;84;21276;-94
2021/05/09 01:26:03;;;;;;;0.73;0.73;;;;;;;6.33;63.91;100624.75;1661017;84;21180;-92
2021/05/09 01:28:32;;;;;;;0.87;0.87;;;;;;;6.26;64.02;100630.34;1658486;85;21271;-92
2021/05/09 01:31:01;;;;;;;1.50;1.40;;;;;;;6.23;64.37;100632.78;1691885;83;21306;-92
2021/05/09 01:33:29;;;;;;;1.33;1.10;;;;;;;6.18;64.40;100631.93;1682287;82;21535;-93
2021/05/09 01:35:58;;;;;;;1.53;1.37;;;;;;;6.15;64.39;100632.73;1671085;85;21310;-93
2021/05/09 01:38:26;;;;;;;1.57;1.47;;;;;;;6.12;64.75;100648.43;1669379;84;21338;-93
2021/05/09 01:40:53;;;;;;;1.67;1.33;;;;;;;6.07;64.75;100641.92;1664401;84;21354;-93
2021/05/09 01:43:20;;;;;;;1.13;1.13;;;;;;;6.01;65.04;100645.51;1659118;85;21214;-93
2021/05/09 01:45:48;;;;;;;0.93;0.80;;;;;;;5.97;65.16;100653.41;1697508;83;21142;-93
2021/05/09 01:48:19;;;;;;;2.10;0.83;;;;;;;5.94;65.12;100651.02;1686852;82;21205;-93
2021/05/09 01:50:46;;;;;;;0.70;0.67;;;;;;;6.02;64.99;100659.06;1699549;83;21234;-93
2021/05/09 01:53:15;;;;;;;0.73;0.73;;;;;;;6.01;65.16;100658.74;1699018;82;21217;-93
2021/05/09 01:55:43;;;;;;;1.03;0.93;;;;;;;5.94;65.27;100658.14;1690742;83;21131;-92
2021/05/09 01:58:15;;;;;;;0.90;0.90;;;;;;;5.87;65.61;100659.72;1695605;83;21190;-94
2021/05/09 02:00:45;;;;;;;1.30;1.20;;;;;;;5.81;65.81;100664.61;1692003;84;21457;-92
2021/05/09 02:03:14;;;;;;;2.10;1.30;;;;;;;5.77;65.88;100671.19;1672538;84;21461;-92
2021/05/09 02:05:41;;;;;;;3.03;1.27;;;;;;;5.07;65.86;100557.22;1646596;85;21226;-93
2021/05/09 02:08:08;;;;;;;4.97;1.43;;;;;;;5.70;66.19;100675.91;1675934;84;21346;-92
2021/05/09 02:10:40;;;;;;;1.13;1.13;;;;;;;5.69;66.01;100680.37;1679498;84;21219;-92
2021/05/09 02:13:07;;;;;;;1.60;1.37;;;;;;;5.75;66.12;100685.05;1692326;83;21591;-92
2021/05/09 02:15:38;;;;;;;1.10;1.00;;;;;;;5.75;65.91;100683.73;1697805;84;21234;-92
2021/05/09 02:18:06;;;;;;;1.40;1.40;;;;;;;5.46;66.22;100648.19;1703169;83;21197;-91
2021/05/09 02:20:36;;;;;;;1.47;1.37;;;;;;;5.65;66.40;100686.91;1658621;84;21194;-91
2021/05/09 02:23:03;;;;;;;1.07;0.93;;;;;;;5.62;66.39;100691.19;1651193;85;21149;-91
2021/05/09 02:25:30;;;;;;;1.30;1.20;;;;;;;5.60;66.60;100689.19;1652711;84;21325;-92
2021/05/09 02:28:00;;;;;;;2.67;1.50;;;;;;;5.58;67.11;100695.94;1657966;84;21211;-92
2021/05/09 02:30:27;;;;;;;1.40;1.30;;;;;;;5.60;66.65;100695.80;1663208;84;21184;-93
2021/05/09 02:32:54;;;;;;;1.83;0.90;;;;;;;5.73;66.40;100703.39;1667671;85;21152;-93
2021/05/09 02:35:24;;;;;;;1.07;1.07;;;;;;;5.76;66.14;100704.39;1640951;85;21207;-94
2021/05/09 02:37:52;;;;;;;0.97;0.97;;;;;;;5.72;66.25;100714.94;1633828;86;21398;-93
2021/05/09 02:40:19;;;;;;;3.50;1.43;;;;;;;5.70;66.23;100717.72;1663211;81;21189;-91
2021/05/09 02:42:47;;;;;;;2.43;1.37;;;;;;;5.68;66.30;100718.86;1665481;85;21207;-94
2021/05/09 02:45:15;;;;;;;2.97;1.20;;;;;;;5.67;66.49;100727.30;1626865;85;21169;-93
2021/05/09 02:47:42;;;;;;;1.50;1.40;;;;;;;5.65;66.52;100731.87;1652535;85;21235;-94
2021/05/09 02:50:12;;;;;;;1.50;1.33;;;;;;;5.65;66.71;100734.05;1658794;85;21279;-94
2021/05/09 02:52:41;;;;;;;2.00;1.00;;;;;;;5.75;66.41;100738.45;1664409;85;21630;-93
2021/05/09 02:55:10;;;;;;;2.53;1.30;;;;;;;6.06;65.75;100744.28;1659201;85;21203;-93
2021/05/09 02:57:38;;;;;;;1.47;0.87;;;;;;;6.50;64.96;100755.47;1644223;86;21242;-94
2021/05/09 03:00:07;;;;;;;1.20;1.10;;;;;;;6.98;64.08;100755.55;1641695;85;21193;-94
2021/05/09 03:02:35;;;;;;;1.47;1.43;;;;;;;7.51;61.70;100759.02;1642551;84;21219;-93
2021/05/09 03:05:04;;;;;;;1.30;1.20;;;;;;;7.97;60.62;100759.06;1607404;87;21354;-93
2021/05/09 03:07:33;;;;;;;0.77;0.77;;;;;;;8.43;58.92;100753.38;1653820;83;21240;-93
2021/05/09 03:10:00;;;;;;;1.07;0.70;;;;;;;8.86;57.47;100762.04;1637340;85;21252;-94
2021/05/09 03:12:28;;;;;;;0.83;0.80;;;;;;;9.23;55.34;100771.33;1632942;85;21304;-92
2021/05/09 03:14:57;;;;;;;1.10;1.10;;;;;;;9.54;54.92;100776.72;1664123;86;21342;-92
2021/05/09 03:17:25;;;;;;;0.80;0.80;;;;;;;9.86;53.89;100773.63;1627710;86;21224;-92
2021/05/09 03:19:52;;;;;;;5.50;1.47;;;;;;;10.12;53.35;100778.66;1650435;84;21792;-92
2021/05/09 03:22:19;;;;;;;2.83;1.37;;;;;;;10.44;52.16;100783.51;1676877;84;21783;-92
2021/05/09 03:24:46;;;;;;;0.80;0.80;;;;;;;10.67;51.55;100786.17;1676116;84;21235;-91
2021/05/09 03:27:13;;;;;;;1.37;1.30;;;;;;;10.97;50.58;100782.28;1681948;83;21204;-91
2021/05/09 03:29:40;;;;;;;1.47;1.30;;;;;;;11.29;49.59;100791.81;1664112;84;21230;-91
2021/05/09 03:32:08;;;;;;;1.00;1.00;;;;;;;11.55;49.47;100793.75;1680699;84;21199;-92
2021/05/09 03:34:35;;;;;;;0.82;0.82;;;;;;;11.84;48.14;100796.39;1672516;84;21748;-90
2021/05/09 03:37:02;;;;;;;2.50;0.65;;;;;;;12.12;47.21;100799.76;1662839;85;21604;-91
2021/05/09 03:39:29;;;;;;;0.57;0.57;;;;;;;12.30;46.76;100810.54;1647603;84;21348;-91
2021/05/09 03:41:57;;;;;;;1.37;0.57;;;;;;;12.53;46.56;100801.87;1662428;84;21168;-91
2021/05/09 03:44:24;;;;;;;0.60;0.60;;;;;;;12.80;46.26;100804.80;1592152;87;21259;-92
2021/05/09 03:46:51;;;;;;;0.55;0.55;;;;;;;13.16;44.87;100801.20;1637192;87;21220;-92
2021/05/09 03:49:18;;;;;;;1.17;0.82;;;;;;;13.37;44.26;100813.25;1638683;86;21647;-92
2021/05/09 03:51:45;;;;;;;0.93;0.55;;;;;;;13.59;43.92;100807.30;1640365;87;21376;-92
2021/05/09 03:54:12;;;;;;;0.82;0.82;;;;;;;13.88;43.75;100814.80;1625318;85;21717;-88
2021/05/09 03:56:40;;;;;;;0.80;0.70;;;;;;;14.14;42.61;100819.42;1609910;86;21587;-91
2021/05/09 03:59:07;;;;;;;0.42;0.42;;;;;;;14.26;42.13;100830.91;1646887;85;21399;-90
2021/05/09 04:01:34;;;;;;;1.30;1.02;;;;;;;14.23;42.07;100827.31;1674211;83;21180;-91
2021/05/09 04:04:02;;;;;;;0.65;0.47;;;;;;;14.19;41.69;100817.50;1681507;84;21220;-91
2021/05/09 04:06:29;;;;;;;0.50;0.50;;;;;;;14.21;41.88;100828.33;1669220;84;21635;-92
2021/05/09 04:08:58;;;;;;;1.27;0.75;;;;;;;14.42;41.89;100825.20;1674995;84;21252;-92
2021/05/09 04:11:25;;;;;;;0.98;0.75;;;;;;;14.60;41.21;100821.47;1664471;83;21724;-92
2021/05/09 04:13:52;;;;;;;0.72;0.72;;;;;;;14.75;40.69;100828.53;1708702;83;21315;-92
2021/05/09 04:16:20;;;;;;;2.00;0.68;;;;;;;14.87;40.61;100823.37;1676909;85;22306;-91
2021/05/09 04:18:47;;;;;;;1.32;0.98;;;;;;;14.92;40.22;100824.94;1659473;85;21237;-91
2021/05/09 04:21:14;;;;;;;0.62;0.50;;;;;;;15.01;40.22;100829.58;1640147;85;21243;-92
2021/05/09 04:23:43;;;;;;;0.42;0.42;;;;;;;15.13;40.37;100833.31;1624484;86;21647;-92
2021/05/09 04:26:10;;;;;;;0.60;0.60;;;;;;;15.35;39.10;100835.25;1623241;87;21371;-91
2021/05/09 04:28:37;;;;;;;1.32;1.32;;;;;;;15.36;38.84;100835.57;1638946;86;21208;-93
2021/05/09 04:31:04;;;;;;;2.67;0.88;;;;;;;15.29;39.18;100838.77;1638933;86;21301;-92
2021/05/09 04:33:32;;;;;;;0.80;0.80;;;;;;;15.28;39.67;100839.30;1644547;86;21633;-93
2021/05/09 04:35:59;;;;;;;1.02;1.02;;;;;;;15.42;39.39;100845.47;1642270;85;21213;-90
2021/05/09 04:38:26;;;;;;;1.05;1.00;;;;;;;15.60;38.85;100849.41;1663286;83;21337;-90
2021/05/09 04:40:53;;;;;;;1.62;0.90;;;;;;;15.79;38.89;100849.91;1700008;83;21410;-90
2021/05/09 04:43:21;;;;;;;0.82;0.82;;;;;;;16.06;37.59;100854.68;1692607;83;21435;-91
2021/05/09 04:45:53;;;;;;;1.05;0.98;;;;;;;16.11;37.80;100857.56;1663273;84;21224;-89
2021/05/09 04:48:23;;;;;;;1.37;0.82;;;;;;;16.00;37.76;100866.29;1602051;87;21220;-90
2021/05/09 04:50:51;;;;;;;1.62;0.82;;;;;;;16.06;37.49;100868.66;1653550;85;21257;-89
2021/05/09 04:53:34;;;;;;;2.35;1.00;;;;;;;16.14;37.71;100873.29;1644306;87;21392;-88
2021/05/09 04:56:08;;;;;;;0.60;0.60;;;;;;;16.27;36.91;100872.39;1631266;85;21105;-90
2021/05/09 04:58:38;;;;;;;0.65;0.45;;;;;;;16.19;37.20;100874.52;1639516;86;21479;-89
2021/05/09 05:01:08;;;;;;;0.40;0.40;;;;;;;16.13;37.09;100888.29;1647696;85;21667;-89
2021/05/09 05:03:37;;;;;;;0.82;0.82;;;;;;;15.67;36.74;100824.67;1673685;84;21211;-90
2021/05/09 05:06:07;;;;;;;0.50;0.40;;;;;;;15.87;36.79;100887.30;1659711;84;21176;-89
2021/05/09 05:08:36;;;;;;;0.82;0.30;;;;;;;15.56;37.16;100887.43;1633024;87;21249;-89
2021/05/09 05:11:07;;;;;;;0.93;0.30;;;;;;;15.37;38.05;100899.84;1638882;86;21249;-88
2021/05/09 05:13:36;;;;;;;0.30;0.30;;;;;;;15.39;38.09;100888.89;1664297;85;21371;-87
2021/05/09 05:16:06;;;;;;;0.50;0.50;;;;;;;15.46;38.36;100892.90;1652972;85;21227;-89
2021/05/09 05:18:36;;;;;;;1.85;0.50;;;;;;;15.53;37.74;100900.45;1671931;85;21208;-88
2021/05/09 05:21:05;;;;;;;0.93;0.30;;;;;;;15.44;38.03;100901.16;1672377;84;21698;-87
2021/05/09 05:23:36;;;;;;;0.45;0.30;;;;;;;15.40;38.55;100900.45;1658789;84;21198;-88
2021/05/09 05:26:04;;;;;;;1.75;0.50;;;;;;;15.40;37.41;100899.11;1651079;84;21244;-88
2021/05/09 05:28:32;;;;;;;0.68;0.40;;;;;;;15.24;38.11;100902.52;1664419;85;22399;-88
2021/05/09 05:31:00;;;;;;;1.90;0.30;;;;;;;15.22;38.02;100899.70;1674098;84;21164;-86
2021/05/09 05:33:31;;;;;;;1.45;0.37;;;;;;;15.19;37.82;100909.01;1649504;84;21025;-88
2021/05/09 05:36:01;;;;;;;0.30;0.30;;;;;;;15.11;38.00;100909.21;1694045;84;21669;-87
2021/05/09 05:38:29;;;;;;;0.50;0.50;;;;;;;15.06;38.45;100910.33;1662390;85;21232;-87
2021/05/09 05:40:58;;;;;;;0.40;0.40;;;;;;;15.12;37.91;100907.64;1640260;86;21806;-88
2021/05/09 05:43:30;;;;;;;0.72;0.20;;;;;;;15.18;37.95;100912.22;1655273;85;21283;-87
2021/05/09 05:46:00;;;;;;;0.20;0.20;;;;;;;15.09;38.07;100914.78;1653149;84;21241;-87
2021/05/09 05:48:30;;;;;;;1.20;0.35;;;;;;;15.06;38.80;100921.07;1711531;82;21203;-87
2021/05/09 05:50:59;;;;;;;0.75;0.20;;;;;;;15.30;37.87;100920.48;1713874;83;21188;-87
2021/05/09 05:53:28;;;;;;;2.27;0.20;;;;;;;15.44;36.40;100914.59;1696357;83;21231;-88
2021/05/09 05:55:57;;;;;;;1.07;0.20;;;;;;;15.29;36.71;100916.13;1669024;83;21646;-86
2021/05/09 05:58:24;;;;;;;1.07;0.20;;;;;;;15.33;36.44;100923.27;1673692;84;21215;-87
2021/05/09 06:00:52;;;;;;;1.02;0.20;;;;;;;15.27;36.23;100920.06;1675790;84;21663;-89
2021/05/09 06:03:20;;;;;;;0.28;0.25;;;;;;;15.24;36.82;100923.15;1666629;83;21325;-87
2021/05/09 06:05:48;;;;;;;0.47;0.47;;;;;;;15.32;36.83;100922.97;1670213;84;21220;-87
2021/05/09 06:08:16;;;;;;;0.45;0.20;;;;;;;15.43;35.73;100921.02;1663446;84;21357;-87
2021/05/09 06:10:45;;;;;;;0.30;0.20;;;;;;;15.34;36.20;100930.30;1666286;84;21192;-88
2021/05/09 06:13:13;;;;;;;0.30;0.10;;;;;;;15.34;36.56;100925.75;1689217;83;21174;-88
2021/05/09 06:15:44;;;;;;;0.10;0.10;;;;;;;15.39;36.67;100933.20;1677819;84;21219;-87
2021/05/09 06:18:12;;;;;;;1.07;0.30;;;;;;;15.40;36.24;100932.69;1687288;83;21204;-87
2021/05/09 06:20:39;;;;;;;0.20;0.20;;;;;;;15.38;36.75;100936.91;1666193;83;21202;-89
2021/05/09 06:23:08;;;;;;;1.05;0.20;;;;;;;15.41;35.71;100936.52;1694394;83;21334;-88
2021/05/09 06:25:38;;;;;;;0.20;0.20;;;;;;;15.48;36.70;100933.81;1671134;83;21456;-88
2021/05/09 06:28:09;;;;;;;0.35;0.20;;;;;;;15.60;35.32;100928.67;1642211;86;21240;-86
2021/05/09 06:30:38;;;;;;;1.45;0.20;;;;;;;15.54;35.90;100935.70;1626729;86;21221;-87
2021/05/09 06:33:05;;;;;;;0.37;0.20;;;;;;;15.54;35.22;100927.11;1623881;87;21386;-87
2021/05/09 06:35:37;;;;;;;3.42;0.20;;;;;;;15.61;35.60;100940.53;1639797;85;21327;-88
2021/05/09 06:38:03;;;;;;;3.35;0.20;;;;;;;15.54;35.52;100939.73;1657679;85;21470;-87
2021/05/09 06:40:32;;;;;;;0.45;0.20;;;;;;;15.36;36.16;100938.98;1673750;82;21228;-87
2021/05/09 06:43:00;;;;;;;0.50;0.37;;;;;;;15.28;36.05;100933.30;1682618;83;21208;-86
2021/05/09 06:45:33;;;;;;;0.90;0.20;;;;;;;15.23;36.24;100930.39;1661640;83;21154;-87
2021/05/09 06:48:04;;;;;;;0.20;0.20;;;;;;;15.42;34.64;100944.05;1618058;86;21240;-85
2021/05/09 06:50:33;;;;;;;0.30;0.20;;;;;;;15.40;35.75;100938.87;1648115;85;21378;-89
2021/05/09 06:53:06;;;;;;;0.85;0.20;;;;;;;15.41;35.46;100943.23;1641179;86;21351;-87
2021/05/09 06:55:35;;;;;;;0.30;0.30;;;;;;;15.11;35.31;100951.65;1642460;85;21125;-87
2021/05/09 06:58:03;;;;;;;0.20;0.10;;;;;;;14.87;36.51;100953.55;1650709;85;21352;-87
2021/05/09 07:00:33;;;;;;;2.37;0.10;;;;;;;14.93;37.59;100956.75;1637842;83;21141;-88
2021/05/09 07:03:00;;;;;;;1.10;0.30;;;;;;;15.04;36.78;100963.41;1672969;82;21205;-86
2021/05/09 07:05:28;;;;;;;0.42;0.30;;;;;;;15.03;35.94;100964.42;1649345;86;22284;-87
2021/05/09 07:08:34;;;;;;;;;;;;;;;;;;;;;
2021/05/09 07:27:06;;;;;;;0.28;0.28;;;;;;;14.54;36.50;100947.00;1742050;78;21174;-89
2021/05/09 07:29:41;;;;;;;0.30;0.20;;;;;;;14.34;37.08;100941.52;1821906;77;22934;-88
2021/05/09 07:32:08;;;;;;;1.20;0.50;;;;;;;14.16;37.27;100951.41;1754318;81;21208;-86
2021/05/09 07:34:35;;;;;;;2.35;0.30;;;;;;;13.97;38.01;100949.44;1753496;81;21599;-89
2021/05/09 07:37:02;;;;;;;0.30;0.20;;;;;;;13.85;38.65;100942.98;1740398;81;21331;-89
2021/05/09 07:39:29;;;;;;;0.50;0.20;;;;;;;13.73;38.87;100951.55;1754986;81;21147;-88
2021/05/09 07:41:56;;;;;;;0.20;0.20;;;;;;;13.67;38.84;100955.50;1747078;81;21184;-89
2021/05/09 07:44:24;;;;;;;0.25;0.25;;;;;;;13.61;38.07;100957.10;1727431;82;21086;-87
2021/05/09 07:46:53;;;;;;;0.30;0.20;;;;;;;13.50;38.89;100951.75;1722187;83;21212;-89
2021/05/09 07:49:20;;;;;;;0.40;0.37;;;;;;;13.46;38.80;100954.50;1725976;82;21353;-89
2021/05/09 07:51:47;;;;;;;0.65;0.30;;;;;;;13.37;39.43;100949.80;1715589;83;21161;-87
2021/05/09 07:54:14;;;;;;;0.30;0.30;;;;;;;13.39;39.66;100950.92;1704069;83;21191;-88
2021/05/09 07:56:41;;;;;;;2.55;0.50;;;;;;;13.50;39.26;100954.95;1754364;80;21120;-88
2021/05/09 07:59:08;;;;;;;1.47;0.33;;;;;;;13.47;39.06;100941.92;1770608;80;21179;-88
2021/05/09 08:01:35;;;;;;;2.50;0.20;;;;;;;13.41;38.40;100952.41;1771918;81;21649;-90
2021/05/09 08:04:04;;;;;;;1.05;0.20;;;;;;;13.32;39.19;100946.04;1765243;81;21204;-89
2021/05/09 08:06:33;;;;;;;0.30;0.15;;;;;;;13.24;39.12;100944.26;1752818;81;21352;-87
2021/05/09 08:09:05;;;;;;;0.23;0.10;;;;;;;13.23;39.66;100936.75;1748156;81;21641;-87
2021/05/09 08:11:32;;;;;;;0.55;0.20;;;;;;;13.37;39.26;100948.95;1747283;81;21225;-90
2021/05/09 08:13:59;;;;;;;2.55;0.30;;;;;;;13.46;38.99;100943.78;1760753;81;21300;-89
2021/05/09 08:16:26;;;;;;;1.20;0.30;;;;;;;13.50;38.94;100937.02;1770885;81;21646;-89
2021/05/09 08:18:54;;;;;;;0.20;0.10;;;;;;;13.58;39.71;100941.41;1761073;81;21143;-90
2021/05/09 08:21:20;;;;;;;0.20;0.20;;;;;;;13.65;38.48;100950.84;1769366;81;21549;-86
2021/05/09 08:23:49;;;;;;;0.23;0.17;;;;;;;13.64;38.95;100947.35;1756657;81;21514;-87
2021/05/09 08:26:17;;;;;;;0.50;0.50;;;;;;;13.52;38.55;100950.22;1764588;81;21179;-89
2021/05/09 08:28:45;;;;;;;0.10;0.10;;;;;;;13.32;38.95;100948.20;1762872;81;21203;-88
2021/05/09 08:31:16;;;;;;;0.40;0.20;;;;;;;13.10;40.37;100950.52;1754480;81;21642;-89
2021/05/09 08:33:43;;;;;;;0.40;0.25;;;;;;;13.00;39.96;100958.34;1749985;81;21096;-88
2021/05/09 08:36:15;;;;;;;1.55;0.25;;;;;;;12.93;40.85;100951.27;1774566;80;21180;-87
2021/05/09 08:38:43;;;;;;;0.33;0.13;;;;;;;13.02;40.90;100942.10;1762335;80;21318;-88
2021/05/09 08:41:10;;;;;;;0.30;0.30;;;;;;;13.12;40.49;100949.30;1754864;80;21326;-89
2021/05/09 08:43:38;;;;;;;0.40;0.20;;;;;;;13.13;39.67;100940.75;1776888;80;21188;-88
2021/05/09 08:46:05;;;;;;;0.30;0.20;;;;;;;13.04;39.91;100936.87;1711260;80;21132;-91
2021/05/09 08:48:35;;;;;;;0.33;0.25;;;;;;;13.01;40.15;100933.22;1712260;82;21669;-88
2021/05/09 08:51:05;;;;;;;1.12;0.20;;;;;;;13.02;40.39;100934.89;1683257;83;21661;-89
2021/05/09 08:53:33;;;;;;;1.75;0.10;;;;;;;13.10;38.81;100925.91;1704277;83;21208;-88
2021/05/09 08:56:00;;;;;;;0.30;0.20;;;;;;;13.15;37.93;100933.39;1725956;81;21045;-89
2021/05/09 08:58:27;;;;;;;1.60;0.20;;;;;;;13.21;38.68;100942.80;1746741;81;21338;-89
2021/05/09 09:00:54;;;;;;;0.30;0.30;;;;;;;13.34;37.79;100936.79;1741772;82;21231;-90
2021/05/09 09:03:21;;;;;;;0.95;0.33;;;;;;;13.49;37.30;100939.91;1754857;82;21192;-89
2021/05/09 09:05:51;;;;;;;0.30;0.25;;;;;;;13.65;37.01;100946.31;1701451;83;21177;-90
2021/05/09 09:08:19;;;;;;;0.53;0.20;;;;;;;13.76;36.41;100938.27;1756270;81;21338;-88
2021/05/09 09:10:51;;;;;;;0.25;0.25;;;;;;;13.76;36.01;100939.61;1751612;82;21142;-88
2021/05/09 09:13:31;;;;;;;0.65;0.53;;;;;;;13.68;36.64;100947.80;1718672;82;21272;-89
2021/05/09 09:16:07;;;;;;;0.20;0.20;;;;;;;13.59;36.83;100947.09;1697142;84;21165;-91
2021/05/09 09:18:40;;;;;;;0.60;0.20;;;;;;;13.55;37.00;100953.86;1704320;83;21229;-90
2021/05/09 09:21:24;;;;;;;1.75;0.65;;;;;;;13.47;37.13;100944.12;1716939;83;21198;-89
2021/05/09 09:24:06;;;;;;;1.10;0.42;;;;;;;13.40;37.53;100952.59;1721902;83;21730;-90
2021/05/09 09:26:41;;;;;;;0.20;0.20;;;;;;;13.43;37.21;100956.23;1715595;83;21178;-89
2021/05/09 09:29:36;;;;;;;0.30;0.10;;;;;;;13.51;37.16;100949.92;1723882;83;21220;-91
2021/05/09 09:32:08;;;;;;;0.17;0.10;;;;;;;13.58;37.04;100946.77;1722485;83;21323;-90
2021/05/09 09:34:45;;;;;;;0.23;0.15;;;;;;;13.65;36.79;100944.97;1732055;82;21542;-91
2021/05/09 09:37:15;;;;;;;0.30;0.28;;;;;;;13.72;37.09;100957.92;1730265;82;21355;-89
2021/05/09 09:39:59;;;;;;;0.62;0.10;;;;;;;13.74;36.81;100949.17;1698151;84;21204;-90
2021/05/09 09:42:41;;;;;;;0.20;0.20;;;;;;;13.79;37.10;100948.61;1696767;84;21184;-91
2021/05/09 09:45:24;;;;;;;0.30;0.20;;;;;;;13.69;36.67;100944.90;1695312;83;21061;-91
2021/05/09 09:48:02;;;;;;;0.20;0.10;;;;;;;13.53;36.71;100958.59;1693240;84;21346;-92
2021/05/09 09:50:50;;;;;;;1.30;0.28;;;;;;;13.43;37.35;100962.94;1684540;84;21199;-91
2021/05/09 09:53:34;;;;;;;0.20;0.20;;;;;;;13.40;37.37;100962.78;1702586;84;21196;-91
2021/05/09 09:56:14;;;;;;;0.20;0.17;;;;;;;13.32;37.03;100957.57;1715648;82;21116;-92
2021/05/09 09:58:48;;;;;;;1.42;0.30;;;;;;;13.30;37.54;100952.92;1722561;83;21322;-92
2021/05/09 10:01:29;;;;;;;0.30;0.23;;;;;;;13.36;36.46;100954.83;1714338;83;21182;-92
2021/05/09 10:04:01;;;;;;;0.60;0.47;;;;;;;13.41;36.72;100961.78;1676779;85;21196;-91
2021/05/09 10:06:32;;;;;;;0.62;0.30;;;;;;;13.49;37.00;100969.37;1648644;86;21169;-89
2021/05/09 10:08:59;;;;;;;0.42;0.23;;;;;;;13.55;37.15;100973.95;1680543;84;21212;-92
2021/05/09 10:11:31;;;;;;;1.40;0.20;;;;;;;13.58;36.32;100961.00;1671738;83;21221;-92
2021/05/09 10:13:59;;;;;;;0.37;0.10;;;;;;;13.62;36.75;100965.47;1692928;83;21215;-91
2021/05/09 10:16:30;;;;;;;0.20;0.10;;;;;;;13.63;36.08;100965.77;1724594;81;21188;-91
2021/05/09 10:19:02;;;;;;;0.10;0.10;;;;;;;13.65;35.16;100961.56;1728467;81;21177;-93
2021/05/09 10:21:31;;;;;;;0.33;0.10;;;;;;;13.63;35.39;100971.95;1739843;82;21175;-92
2021/05/09 10:24:17;;;;;;;0.50;0.10;;;;;;;13.62;36.24;100969.48;1696495;82;21096;-92
2021/05/09 10:27:11;;;;;;;1.95;0.10;;;;;;;13.52;35.81;100982.36;1692447;82;21196;-92
2021/05/09 10:29:45;;;;;;;0.37;0.20;;;;;;;13.40;36.48;100976.17;1707764;82;21268;-91
2021/05/09 10:32:24;;;;;;;1.65;0.20;;;;;;;13.46;37.04;100976.44;1714924;81;21198;-91
2021/05/09 10:35:01;;;;;;;0.30;0.20;;;;;;;13.56;36.44;100978.27;1694769;81;21103;-92
2021/05/09 10:37:45;;;;;;;0.20;0.17;;;;;;;13.67;35.50;100975.59;1680869;84;21317;-92
2021/05/09 10:40:31;;;;;;;0.33;0.30;;;;;;;13.76;35.45;100984.63;1680611;84;21616;-92
2021/05/09 10:43:08;;;;;;;1.20;0.40;;;;;;;13.83;34.94;100980.69;1684012;84;21241;-91
2021/05/09 10:45:41;;;;;;;0.42;0.20;;;;;;;13.81;34.73;100967.47;1657051;85;21198;-91
2021/05/09 10:48:25;;;;;;;0.20;0.13;;;;;;;13.79;34.96;100987.45;1689589;83;21222;-91
2021/05/09 10:51:14;;;;;;;0.33;0.10;;;;;;;13.75;35.06;100977.64;1690693;83;21201;-93
2021/05/09 10:53:54;;;;;;;;;;;;;;;;;;;;;
2021/05/09 10:56:38;;;;;;;0.10;0.10;;;;;;;13.78;35.78;100972.39;1771497;77;23123;-90
2021/05/09 10:59:08;;;;;;;1.17;0.20;;;;;;;13.74;35.57;100978.64;1754795;80;21203;-92
2021/05/09 11:01:38;;;;;;;0.62;0.20;;;;;;;13.73;35.44;100976.16;1667408;84;21239;-91
2021/05/09 11:04:13;;;;;;;0.70;0.30;;;;;;;13.72;35.98;100973.99;1660640;85;21651;-92
2021/05/09 11:06:48;;;;;;;0.50;0.40;;;;;;;13.70;35.84;100974.70;1689889;84;21240;-92
2021/05/09 11:09:26;;;;;;;0.40;0.20;;;;;;;13.70;36.06;100974.70;1675967;84;21641;-92
2021/05/09 11:11:57;;;;;;;1.45;0.30;;;;;;;13.68;35.44;100978.60;1662219;84;21193;-92
2021/05/09 11:14:24;;;;;;;0.72;0.10;;;;;;;13.58;35.43;100978.91;1633869;86;21369;-93
2021/05/09 11:17:04;;;;;;;0.30;0.30;;;;;;;13.49;36.04;100980.09;1634764;86;21791;-92
2021/05/09 11:19:47;;;;;;;2.15;0.20;;;;;;;13.46;36.34;100977.27;1620359;86;22054;-91
2021/05/09 11:22:21;;;;;;;0.30;0.30;;;;;;;13.44;36.33;100973.43;1659600;83;21232;-92
2021/05/09 11:24:55;;;;;;;0.40;0.10;;;;;;;13.46;35.91;100974.58;1678495;83;21358;-91
2021/05/09 11:27:22;;;;;;;0.40;0.17;;;;;;;13.49;37.01;100976.06;1691334;84;21296;-91
2021/05/09 11:29:53;;;;;;;0.78;0.20;;;;;;;13.51;36.41;100982.06;1697002;84;21374;-92
2021/05/09 11:32:23;;;;;;;0.45;0.45;;;;;;;13.50;35.96;100980.38;1695157;84;21235;-92
2021/05/09 11:34:54;;;;;;;0.47;0.40;;;;;;;13.45;35.49;100974.28;1690390;84;21123;-91
2021/05/09 11:37:37;;;;;;;0.30;0.25;;;;;;;13.48;35.42;100977.08;1667606;85;21199;-93
2021/05/09 11:40:10;;;;;;;0.62;0.30;;;;;;;13.56;35.48;100972.91;1666125;85;21357;-92
2021/05/09 11:42:42;;;;;;;1.37;0.20;;;;;;;13.67;35.81;100964.36;1654273;85;21431;-91
2021/05/09 11:45:09;;;;;;;1.27;0.30;;;;;;;13.68;34.82;100960.67;1655793;85;21703;-92
2021/05/09 11:47:39;;;;;;;1.98;0.10;;;;;;;13.73;34.88;100960.93;1643953;86;21273;-93
2021/05/09 11:50:09;;;;;;;0.50;0.30;;;;;;;13.77;35.05;100961.38;1648119;85;21232;-93
2021/05/09 11:52:43;;;;;;;0.20;0.20;;;;;;;13.81;35.20;100963.45;1647531;84;21350;-91
2021/05/09 11:55:14;;;;;;;2.70;0.62;;;;;;;13.83;35.09;100964.61;1643185;84;21379;-93
2021/05/09 11:57:42;;;;;;;0.40;0.30;;;;;;;13.77;35.47;100974.77;1663542;85;21393;-91
2021/05/09 12:00:17;;;;;;;0.20;0.20;;;;;;;13.62;35.59;100960.94;1645157;87;21233;-91
2021/05/09 12:02:47;;;;;;;1.85;0.20;;;;;;;13.50;35.54;100967.00;1633909;86;21268;-93